Gold Country Challenge - Last Loft Flight

Station: Loft Fly - T Race

Distance: 0.3 Miles    

Release: 08-Nov-2019 07:45

Weather Release: Mostly Clear/Mild    Arrival: Clear/Warmer Morning

Wind at Release:     Wind at Arrival:

Temp at Release: °    Temp at Arrival: °

Lofts: 98

Birds: 228

Clocked: 228

Final Race will be this Sunday 11/10. Please let us know if you plan on attendi
Drops Pos Breeder Pigeon Name Color Sex Ent Arrival Speed To Win Elg PdChamp
1 Schmueckle Loft - TX 1056-AU19-SAL BB H 1 08:40:07.30 9.579 00:00:00 Yes
2 Mels Loft - NY 0009-IF19-MTFL COUNTRY GOLD PIED H 1 08:45:59.50 8.657 00:05:52 Yes
3 Fleet Washington - DC 1900-AU19-FLET BC H 1 08:52:50.20 7.783 00:12:43 Yes
4 Aimhigh Loft - CA 2924-AU19-AA KING OF PAIN***0006*** BB H 1 08:53:36.70 7.695 00:13:30 Yes
5 Kay Eastwood - CA 0113-AU19-HANG DCSP H 1 08:53:41.60 7.686 00:13:35 Yes
6 Eastern Pearl Loft - VA 0516-AU19-EPL 🈚️量516=252x357 BB H 1 08:54:30.60 7.596 00:14:23 Yes
7 WŸŁØft - CA 13532-AU19-AA #2 PIED H 1 08:54:34.80 7.588 00:14:28 Yes
8 A P C Loft - TX 19077-AU19-APC BB H 1 08:54:49.30 7.562 00:14:42 Yes
9 Marengo Creek Farms - AL 3410-AU19-MCF BBWF H 1 08:54:53.70 7.554 00:14:47 Yes
10 Nemelka Racing Pigeon Loft - UT 9012-AU19-NRPL Easy Jet BB C 1 08:55:28.70 7.492 00:15:21 Yes
11 Peters - GA 0021-AU19-PETE PETERS - 6 DC H 1 08:55:33.20 7.484 00:15:26 Yes
12 Nemelka Racing Pigeon Loft - UT 9093-AU19-NRPL Haka BC C 2 08:55:37.80 7.476 00:15:30 Yes
13 Ken Chin - CA 0067-AU19-TRAN BB H 1 08:56:02.00 7.433 00:15:55 Yes
14 Nemelka Racing Pigeon Loft - UT 9005-AU19-NRPL Bubbles BC H 3 08:56:43.30 7.362 00:16:36 Yes
15 Perfection Loft - KS 7098-AU19-AA BB H 1 08:57:02.80 7.329 00:16:55 Yes
16 Don & Kathy Dusart - CA 0217-AU19-WDRP BC H 1 08:57:33.90 7.276 00:17:27 Yes
17 Jactions Loft - CA 0804-AU19-AA BBSP H 1 08:57:54.80 7.241 00:17:48 Yes
18 Sierra Ranch - CA 0982-AU19-SR Gold Feather BB H 1 08:58:13.00 7.211 00:18:06 Yes
19 Aimhigh Loft - CA 2953-AU19-AA WE WILL BE TOGETHER BC H 2 08:59:15.30 7.111 00:19:08 Yes
20 Eastern Pearl Loft - VA 0591-AU19-EPL 🈚️量591=058x181 BB H 2 08:59:16.20 7.109 00:19:09 Yes
21 John Hedderson - CA 7601-AU19-FORT 1275x7143 BB H 1 08:59:20.70 7.102 00:19:13 Yes
22 Stallion - CA 0816-AU19-SFPC Wichita’s Gold BB H 1 08:59:51.70 7.053 00:19:44 Yes
23 Cala's - NY 1403-IF19-BUFF BB H 1 09:00:02.40 7.036 00:19:55 Yes
24 Dan & Greg Coury - AZ 13980-AU19-JEDD Auto Pilot 7x1 BBWF H 1 09:00:12.00 7.021 00:20:05 Yes
25 G & J Lofts - CA 2501-AU19-AA Faded Glory BB H 1 09:00:24.50 7.002 00:20:17 Yes
26 Marty Hansen - CA 2104-AU19-LAKE BB H 1 09:00:58.70 6.949 00:20:52 Yes
27 A-Lo-Loft - NY 2833-AU19-FOYS ☯️3958☯️ BBWF H 1 09:01:10.40 6.932 00:21:03 Yes
28 Da-Dong - WI 1688-AU19-RAC 4033-524 BB H 1 09:01:26.30 6.908 00:21:19 Yes
29 Flyhome Loft - KY 1904-AU19-FLYH BBWF H 1 09:01:27.00 6.906 00:21:20 Yes
30 De La O-Lopez-Saenz - CA 9058-AU19-CGR BC H 1 09:01:36.80 6.892 00:21:29 Yes
31 Aimhigh Loft - CA 2901-AU19-AA DESERT ROSE***0096*** BC H 3 09:02:21.40 6.826 00:22:14 Yes
32 Breeders Fall Classic - NC 24734-AU19-FOYS AND H 1 09:02:25.30 6.820 00:22:18 Yes
33 Stark Loft - CA 0012-AU19-HANG """RAD""" RC C 1 09:02:45.30 6.791 00:22:38 Yes
34 ** J-Ireneo Loft ** - CA 0422-AU19-JIR 😊😊😊😊😊 BB H 1 09:03:16.70 6.745 00:23:10 Yes
35 Lopez / Saenz - CA 9090-AU19-CGR BC H 1 09:03:35.50 6.718 00:23:28 Yes
36 Perfection Loft - KS 7099-AU19-AA SLT H 2 09:03:46.70 6.702 00:23:40 Yes
37 A P C Loft - TX 19041-AU19-APC BBSP H 2 09:04:25.00 6.648 00:24:18 Yes
38 De La O-Lopez-Saenz - CA 0804-AU19-TCH BBWF H 2 09:04:35.70 6.634 00:24:28 Yes
39 Shi Loft - PA 7042-IF19-ERIE BB H 1 09:04:37.70 6.631 00:24:30 Yes
40 Skychargers - CA 0275-AU19-CORO BKWF H 1 09:05:17.90 6.575 00:25:11 Yes
41 Bieche-Stevenson - CA 9301-AU19-BIE BC H 1 09:06:20.70 6.491 00:26:13 Yes
42 Jactions Loft - CA 0812-AU19-AA RC H 2 09:06:37.30 6.469 00:26:30 Yes
43 Bob Bostwick - CA 0927-AU19-COCO BB H 1 09:06:49.40 6.453 00:26:42 Yes
44 Fleet Washington - DC 1949-AU19-FLET BB H 2 09:06:52.90 6.448 00:26:46 Yes
45 Crazy Als Lofts - CO 5519-AU19-CRAZ DC H 1 09:06:56.10 6.444 00:26:49 Yes
46 Peters - GA 0019-AU19-PETE PETERS - 5 BB H 2 09:07:06.80 6.430 00:27:00 Yes
47 Whiskey Hollow Loft - TX 1300-AU19-WACO "MAI-TAI" BC H 1 09:07:31.60 6.398 00:27:24 Yes
48 Rodriguez Loft - TX 19577-AU19-WIN Black Diamond BLK H 1 09:07:43.10 6.383 00:27:36 Yes
49 Watson & Williams - NV 0776-AU19-AUB BB H 1 09:08:07.30 6.352 00:28:00 Yes
50 Oddiebeng Lofts - CA 17304-AU19-FOYS BB H 1 09:08:14.10 6.343 00:28:07 Yes
51 Peters - GA 0006-AU19-PETE PETERS - 2 BB H 3 09:08:19.70 6.336 00:28:13 Yes
51 Genesis Syndicate Loft - AZ 0742-AU19-GENS BB H 1 09:08:20.10 6.336 00:28:13 Yes
53 Circle Loft - PA 0444-AU19-CIRC Blue Rooster PIED H 1 09:08:22.70 6.333 00:28:15 Yes
54 King Conch Loft - ON 0130-CU19-KCL BB H 1 09:08:26.20 6.328 00:28:19 Yes
54 Baldwin & Tilson - NC 9027-AU19-TENT 825(570)-1107(1312) BB H 1 09:08:26.70 6.328 00:28:19 Yes
56 WŸŁØft - CA 13512-AU19-AA Åmbition’s Pride PIED H 2 09:08:28.10 6.326 00:28:21 Yes
57 King Conch Loft - ON 0139-CU19-KCL BB H 2 09:08:32.20 6.321 00:28:25 Yes
58 Fleet Washington - DC 1911-AU19-FLET BC H 3 09:08:32.50 6.320 00:28:25 Yes
59 Duane Gragg - CA 0197-AU19-AUB SLSP H 1 09:08:36.90 6.315 00:28:29 Yes
60 Jimmy Zheng Loft - MS 0991-AU19-JZL BC H 1 09:08:38.70 6.312 00:28:32 Yes
60 Bieche-Stevenson - CA 9160-AU19-BIE BBSP H 2 09:08:39.20 6.312 00:28:32 Yes
62 D J's Loft Of Ca - CA 5097-AU19-FSC BB H 1 09:08:41.60 6.309 00:28:34 Yes
63 A P C Loft - TX 19033-AU19-APC BC H 3 09:08:42.40 6.308 00:28:35 Yes
64 Marengo Creek Farms - AL 3227-AU19-MCF BBWF H 2 09:08:51.10 6.297 00:28:44 Yes
65 Al Shulman - CA 2525-AU19-WSJ PIED H 1 09:08:59.00 6.287 00:28:52 Yes
66 A.D.S Hilltop Family Loft - NJ 62882-AU19-ARPU Osiris X A.D.S President BCSP H 1 09:09:03.90 6.281 00:28:57 Yes
67 Quejado/Fernandez - CA 0917-AU19-QUEJ RF-1 AVQ BB H 1 09:09:14.50 6.268 00:29:07 Yes
68 Crazy Als Lofts - CO 5514-AU19-CRAZ BB H 2 09:09:18.20 6.263 00:29:11 Yes
69 Sierra Ranch - CA 0901-AU19-SR Gold Dust BB H 2 09:09:28.50 6.250 00:29:22 Yes
70 Sugaronni Loft - CA 1231-AU19-FOYS *gardy* BC H 1 09:09:38.70 6.238 00:29:31 Yes
70 Bob Bostwick - CA 0928-AU19-COCO BB H 2 09:09:38.70 6.238 00:29:31 Yes
72 Sierra Ranch - CA 0909-AU19-SR Gold finger BC H 3 09:09:53.00 6.220 00:29:46 Yes
73 Eastern Pearl Loft - VA 0513-AU19-EPL 🈚️量513=396x336 PIED H 3 09:10:00.10 6.212 00:29:53 Yes
74 Jimmy Zheng Loft - MS 0963-AU19-JZL BBWF H 2 09:10:11.00 6.198 00:30:04 Yes
75 Marengo Creek Farms - AL 3412-AU19-MCF BB H 3 09:10:31.70 6.173 00:30:25 Yes
76 Racing Pigeon Mall - WA 0905-AU19-RPM BLK H 1 09:11:39.70 6.093 00:31:32 Yes
77 Ken Chin - CA 0880-AU19-HAY BB H 2 09:11:42.00 6.090 00:31:35 Yes
78 Bieche-Stevenson - CA 9091-AU19-BIE BC H 3 09:11:43.60 6.088 00:31:36 Yes
79 Jeff Earthman - NV 1931-AU19-JEDD 899-803 BB H 1 09:11:46.10 6.085 00:31:39 Yes
80 J & J Loft Of Tx. - TX 1613-AU19-WACO 122 x 3061 BCWF H 1 09:11:58.30 6.071 00:31:51 Yes
81 Silicon Valley Syndicate - CA 19156-AU19-SVS DC H 1 09:12:00.10 6.069 00:31:53 Yes
82 Shi Loft - PA 7057-IF19-ERIE BB H 2 09:12:06.10 6.062 00:31:59 Yes
83 Lopez / Saenz - CA 9055-AU19-CGR BB H 2 09:12:10.50 6.057 00:32:03 Yes
84 Shi Loft - PA 7067-IF19-ERIE BB H 3 09:12:13.90 6.053 00:32:07 Yes
85 Poorhouse Road Loft - VA 29728-AU19-ARPU DG BC H 1 09:12:24.10 6.041 00:32:17 Yes
86 Cloux Loft - CO 9732-AU19-FH BB H 1 09:12:28.40 6.036 00:32:21 Yes
87 Crazy Als Lofts - CO 5579-AU19-CRAZ BBSP H 3 09:12:32.30 6.032 00:32:25 Yes
88 Na Hoa - HI 0903-AU19-AUB BB H 1 09:12:35.70 6.028 00:32:28 Yes
89 Jack's Loft - CA 4408-AU19-JEDD BC H 1 09:12:39.20 6.024 00:32:32 Yes
90 Jactions Loft - CA 0806-AU19-AA BB H 3 09:12:48.80 6.013 00:32:41 Yes
91 Schmueckle Loft - TX 1059-AU19-SAL DCSP H 2 09:12:50.50 6.011 00:32:43 Yes
92 Sandstrom Brothers Loft - MN 0032-AU19-SBL BBWF H 1 09:12:52.10 6.009 00:32:45 Yes
93 Stark Loft - CA 0011-AU19-HANG """CHLOE""" BCSP H 2 09:12:55.90 6.005 00:32:48 Yes
94 Goshentown Lofts - TN 7618-AU19-NASH BB H 1 09:12:56.40 6.004 00:32:49 Yes
95 Marengo Creek Farms - AL 3224-AU19-MCF BB H 4 09:13:00.40 6.000 00:32:53 Yes
96 Baldwin & Tilson - NC 9041-AU19-TENT 8109(KW)-8163(1148) BC H 2 09:13:03.20 5.996 00:32:56 Yes
97 Ringor Loft - CA 4693-AU19-JEDD BCSP H 1 09:13:05.20 5.994 00:32:58 Yes
98 Lopez / Saenz - CA 0870-AU19-TCH BB H 3 09:13:09.90 5.989 00:33:02 Yes
99 Peters - GA 0014-AU19-PETE PETERS - 3 BB H 4 09:13:31.40 5.965 00:33:24 Yes
100 G & L Loft - OR 0516-AU19-WPC BC C 1 09:13:36.60 5.959 00:33:29 Yes

There are 228 bird records

Note: These Race Results are unofficial and subject to change until verified by the Race Committee and declared final.